Flight Track Log - Related Links

Times and Time Zones

All times are in EDT time to prevent confusion due to time zone crossing. See the ASH3795 flight status page for this flight to view local times or setup timezone preferences in your user account.

Time Position Orientation Groundspeed Altitude Reporting Facility
EDT Latitude Longitude Course Direction KTS MPH feet Rate Location/Type
Mon 08:21:37 AM 38.8667 -77.4333 218° Southwest 213 245 3,400  Level Potomac TRACON
Mon 08:22:37 AM 38.8167 -77.4333 180° South 230 265 5,600 2,450 Climbing Potomac TRACON
Mon 08:23:37 AM 38.7333 -77.4333 180° South 275 316 8,300 2,500 Climbing Potomac TRACON
Mon 08:24:37 AM 38.6500 -77.4333 180° South 289 333 10,600 1,841 Climbing Potomac TRACON
Mon 08:25:05 AM 38.6219 -77.4383 188° South 292 336 11,000 1,568 Climbing Washington Center
Mon 08:26:05 AM 38.5428 -77.4419 182° South 308 354 12,900 1,736 Climbing Washington Center
Mon 08:27:00 AM 38.3704 -77.5963 218° Southwest  Level FlightAware Approximate
Mon 08:27:06 AM 38.4572 -77.4397 179° South 308 354 14,500  Level Washington Center
Mon 08:28:04 AM 38.3994 -77.5258 229° Southwest 299 344 16,300 1,714 Climbing Washington Center
Mon 08:29:05 AM 38.3622 -77.6358 247° West 299 344 17,900 1,623 Climbing Washington Center
Mon 08:30:06 AM 38.2939 -77.7292 227° Southwest 342 394 19,600 1,563 Climbing Washington Center
Mon 08:31:04 AM 38.2294 -77.8306 231° Southwest 361 415 21,000 712 Climbing Washington Center
Mon 08:32:04 AM 38.1608 -77.9342 230° Southwest 383 441 21,000 694 Level Washington Center
Mon 08:33:05 AM 38.0900 -78.0400 230° Southwest 388 447 22,400 1,388 Climbing Washington Center
Mon 08:34:05 AM 38.0144 -78.1536 230° Southwest 394 453 23,800 1,388 Climbing Washington Center
Mon 08:35:06 AM 37.9433 -78.2617 230° Southwest 394 453 25,200 1,140 Climbing Washington Center
Mon 08:36:06 AM 37.8681 -78.3669 228° Southwest 400 460 26,100 1,026 Climbing Washington Center
Mon 08:37:03 AM 37.7989 -78.4669 229° Southwest 405 466 27,200 958 Climbing Washington Center
Mon 08:38:05 AM 37.7231 -78.5769 229° Southwest 416 479 28,000 390 Climbing Washington Center
Mon 08:39:06 AM 37.6453 -78.6892 229° Southwest 426 490 28,000  Level Washington Center
Mon 08:40:06 AM 37.5653 -78.7986 227° Southwest 426 490 28,000  Level Washington Center
Mon 08:41:04 AM 37.4806 -78.9181 228° Southwest 426 490 28,000  Level Washington Center
Mon 08:42:05 AM 37.4025 -79.0272 228° Southwest 426 490 28,000  Level Washington Center
Mon 08:43:05 AM 37.3242 -79.1358 228° Southwest 426 490 28,000  Level Washington Center
Mon 08:44:06 AM 37.2417 -79.2442 226° Southwest 426 490 28,000  Level Washington Center
Mon 08:45:03 AM 37.1431 -79.3308 215° Southwest 426 490 28,000  Level Washington Center
Mon 08:46:04 AM 37.0403 -79.4117 212° Southwest 431 496 28,000  Level Washington Center
Mon 08:47:05 AM 36.9503 -79.4878 214° Southwest 438 504 28,000  Level Washington Center
Mon 08:48:06 AM 36.8494 -79.5708 213° Southwest 443 510 28,000  Level Washington Center
Mon 08:49:04 AM 36.7442 -79.6564 213° Southwest 448 516 28,000  Level Washington Center
Mon 08:50:04 AM 36.6306 -79.7486 213° Southwest 448 516 28,000  Level Washington Center
Mon 08:51:08 AM 36.5203 -79.8358 212° Southwest 439 505 28,000 -1,403 Level Atlanta Center
Mon 08:52:08 AM 36.4331 -79.9075 213° Southwest 434 499 25,100 -2,950 Descending Atlanta Center
Mon 08:53:08 AM 36.3314 -79.9900 213° Southwest 434 499 22,100 -1,550 Descending Atlanta Center
Mon 08:54:08 AM 36.2422 -80.0639 214° Southwest 414 476 22,000 -50 Descending Atlanta Center
Mon 08:55:08 AM 36.1386 -80.1539 215° Southwest 409 471 22,000 -1,100 Level Atlanta Center
Mon 08:56:08 AM 36.0453 -80.2328 214° Southwest 409 471 19,800 -2,529 Descending Atlanta Center
Mon 08:56:50 AM 35.9803 -80.2950 218° Southwest 404 465 17,700 -2,900 Descending Atlanta Center
Mon 08:57:08 AM 35.9558 -80.3089 205° Southwest 409 471 16,900 -2,889 Descending Atlanta Center
Mon 08:57:44 AM 35.9092 -80.3572 220° Southwest 392 451 15,100 -2,800 Descending Atlanta Center
Mon 08:58:08 AM 35.8764 -80.3792 208° Southwest 403 464 14,100 -2,449 Descending Atlanta Center
Mon 08:58:33 AM 35.8361 -80.4219 221° Southwest 378 435 13,100 -1,100 Descending Atlanta Center
Mon 08:59:08 AM 35.7972 -80.4467 207° Southwest 374 430 13,000 -393 Descending Atlanta Center
Mon 08:59:34 AM 35.7625 -80.4764 215° Southwest 279 321 12,700 -1,400 Descending Atlanta Center
Mon 09:00:08 AM 35.7253 -80.4908 197° South 311 358 11,600 -2,000 Descending Atlanta Center
Mon 09:00:40 AM 35.6783 -80.5211 208° Southwest 279 321 10,500 -1,600 Descending Atlanta Center
Mon 09:01:08 AM 35.6475 -80.5350 200° South 291 335 10,000 -1,309 Descending Atlanta Center
Mon 09:01:35 AM 35.6228 -80.5539 212° Southwest 269 310 9,300 -1,500 Descending Atlanta Center
Mon 09:02:08 AM 35.5817 -80.5711 199° South 272 313 8,500 -1,574 Descending Atlanta Center
Mon 09:02:36 AM 35.5531 -80.5928 212° Southwest 252 290 7,700 -1,500 Descending Atlanta Center
Mon 09:03:08 AM 35.5158 -80.6094 200° South 264 304 7,000 -1,400 Descending Atlanta Center
Mon 09:03:36 AM 35.4850 -80.6261 204° Southwest 259 298 6,300 -1,000 Descending Atlanta Center
Mon 09:04:08 AM 35.4503 -80.6456 205° Southwest 264 304 6,000 -269 Descending Atlanta Center
Mon 09:04:43 AM 35.4175 -80.6672 208° Southwest 258 297 6,000  Level Atlanta Center
Mon 09:05:08 AM 35.3931 -80.6961 224° Southwest 254 292 6,000 -764 Level Atlanta Center
Mon 09:05:38 AM 35.3731 -80.7275 232° Southwest 249 287 5,300 -1,500 Descending Atlanta Center
Mon 09:06:08 AM 35.3489 -80.7542 222° Southwest 249 287 4,500 -1,418 Descending Atlanta Center
Mon 09:06:33 AM 35.3347 -80.7775 233° Southwest 224 258 4,000 -1,129 Descending Atlanta Center
Mon 09:07:33 AM 35.2986 -80.8297 230° Southwest 192 221 2,900 -992 Descending Atlanta Center
Mon 09:08:34 AM 35.2622 -80.8769 227° Southwest 183 211 2,000 -797 Descending Atlanta Center
Mon 09:09:41 AM 35.2342 -80.9164 229° Southwest 125 144 1,200 -716 Descending Atlanta Center
Mon 09:11:00 AM 35.2137 -80.9491 176° South  Level Estimated
Mon 09:18:00 AM 35.2137 -80.9491 North  Level Estimated

Login

Don't have an account? Register now (free) for customized features, flight alerts, and more!